createdAt,value
2018-01-10T00:02:15.271Z,16.23
2018-01-10T00:04:44.395Z,13.53
2018-01-10T00:07:12.753Z,12.10
2018-01-10T00:09:41.118Z,14.43
2018-01-10T00:12:09.475Z,13.40
2018-01-10T00:14:37.822Z,12.63
2018-01-10T00:17:06.166Z,12.87
2018-01-10T00:19:34.580Z,12.37
2018-01-10T00:22:02.966Z,15.40
2018-01-10T00:24:31.323Z,17.23
2018-01-10T00:26:59.676Z,14.87
2018-01-10T00:29:28.042Z,13.57
2018-01-10T00:31:57.155Z,11.60
2018-01-10T00:34:25.512Z,12.27
2018-01-10T00:36:53.863Z,13.30
2018-01-10T00:39:22.210Z,12.07
2018-01-10T00:41:50.553Z,12.40
2018-01-10T00:44:19.682Z,12.30
2018-01-10T00:46:48.242Z,12.43
2018-01-10T00:49:16.599Z,14.30
2018-01-10T00:51:45.715Z,12.23
2018-01-10T00:54:14.112Z,12.27
2018-01-10T00:56:43.473Z,12.80
2018-01-10T00:59:12.588Z,12.67
2018-01-10T01:01:40.940Z,15.00
2018-01-10T01:04:09.276Z,15.20
2018-01-10T01:06:37.604Z,16.77
2018-01-10T01:09:07.717Z,15.57
2018-01-10T01:11:36.070Z,13.87
2018-01-10T01:14:04.422Z,12.47
2018-01-10T01:16:32.765Z,15.00
2018-01-10T01:19:01.878Z,16.60
2018-01-10T01:21:30.603Z,13.30
2018-01-10T01:23:58.953Z,12.67
2018-01-10T01:26:27.297Z,14.20
2018-01-10T01:28:56.422Z,12.07
2018-01-10T01:31:24.767Z,11.80
2018-01-10T01:33:53.125Z,11.20
2018-01-10T01:36:21.477Z,13.57
2018-01-10T01:38:49.826Z,10.80
2018-01-10T01:41:18.172Z,13.17
2018-01-10T01:43:47.011Z,13.23
2018-01-10T01:46:16.104Z,13.27
2018-01-10T01:48:44.464Z,15.43
2018-01-10T01:51:12.797Z,10.80
2018-01-10T01:53:41.132Z,12.30
2018-01-10T01:56:09.461Z,11.33
2018-01-10T01:58:37.800Z,14.60
2018-01-10T02:01:06.136Z,11.80
2018-01-10T02:03:34.485Z,14.40
2018-01-10T02:06:02.829Z,14.97
2018-01-10T02:08:31.169Z,13.23
2018-01-10T02:11:00.269Z,17.17
2018-01-10T02:13:29.376Z,14.43
2018-01-10T02:15:57.721Z,13.20
2018-01-10T02:18:26.081Z,16.60
2018-01-10T02:20:54.433Z,20.13
2018-01-10T02:23:22.780Z,19.50
2018-01-10T02:25:51.136Z,20.13
2018-01-10T02:28:19.497Z,15.98
2018-01-10T02:30:47.841Z,14.93
2018-01-10T02:33:16.184Z,12.70
2018-01-10T02:35:45.281Z,11.70
2018-01-10T02:38:13.625Z,11.77
2018-01-10T02:40:41.962Z,14.90
2018-01-10T02:43:10.315Z,14.27
2018-01-10T02:45:39.437Z,12.90
2018-01-10T02:48:07.781Z,11.77
2018-01-10T02:50:36.133Z,10.37
2018-01-10T02:53:04.484Z,12.37
2018-01-10T02:55:33.265Z,14.77
2018-01-10T02:58:01.606Z,15.47
2018-01-10T03:00:29.956Z,16.00
2018-01-10T03:02:58.292Z,12.80
2018-01-10T03:05:26.632Z,11.27
2018-01-10T03:07:55.732Z,13.20
2018-01-10T03:10:24.074Z,15.67
2018-01-10T03:12:52.419Z,12.47
2018-01-10T03:15:20.757Z,11.93
2018-01-10T03:17:49.852Z,11.50
2018-01-10T03:20:18.180Z,12.23
2018-01-10T03:22:46.553Z,12.18
2018-01-10T03:25:14.881Z,12.00
2018-01-10T03:27:43.991Z,9.47
2018-01-10T03:30:12.329Z,12.73
2018-01-10T03:32:40.663Z,9.53
2018-01-10T03:35:08.990Z,9.47
2018-01-10T03:37:37.349Z,9.93
2018-01-10T03:40:05.680Z,10.43
2018-01-10T03:42:34.022Z,11.57
2018-01-10T03:45:02.359Z,9.70
2018-01-10T03:47:30.933Z,9.23
2018-01-10T03:49:59.268Z,9.50
2018-01-10T03:52:27.620Z,9.57
2018-01-10T03:54:56.078Z,11.13
2018-01-10T03:57:24.421Z,10.93
2018-01-10T03:59:53.533Z,11.13
2018-01-10T04:02:21.877Z,10.50
2018-01-10T04:04:50.225Z,11.77
2018-01-10T04:07:20.444Z,11.00
2018-01-10T04:09:48.782Z,10.03
2018-01-10T04:12:17.900Z,10.07
2018-01-10T04:14:47.114Z,10.30
2018-01-10T04:17:15.448Z,9.93
2018-01-10T04:19:44.545Z,11.03
2018-01-10T04:22:13.668Z,11.40
2018-01-10T04:24:42.002Z,12.70
2018-01-10T04:27:10.334Z,12.80
2018-01-10T04:29:38.664Z,12.90
2018-01-10T04:32:07.008Z,11.33
2018-01-10T04:34:35.349Z,12.33
2018-01-10T04:37:03.680Z,15.60
2018-01-10T04:39:32.069Z,12.30
2018-01-10T04:42:00.404Z,13.50
2018-01-10T04:44:28.781Z,14.53
2018-01-10T04:46:57.122Z,13.93
2018-01-10T04:49:26.224Z,12.40
2018-01-10T04:51:55.325Z,12.70
2018-01-10T04:54:23.701Z,14.43
2018-01-10T04:56:52.040Z,12.10
2018-01-10T04:59:20.382Z,11.07
2018-01-10T05:01:48.727Z,14.47
2018-01-10T05:04:17.105Z,14.17
2018-01-10T05:06:46.202Z,13.80
2018-01-10T05:09:14.536Z,11.60
2018-01-10T05:11:42.886Z,15.63
2018-01-10T05:14:11.238Z,11.33
2018-01-10T05:16:41.845Z,13.60
2018-01-10T05:19:10.196Z,12.83
2018-01-10T05:21:38.542Z,11.37
2018-01-10T05:24:07.748Z,12.10
2018-01-10T05:26:36.957Z,12.70
2018-01-10T05:29:05.296Z,13.17
2018-01-10T05:31:33.628Z,10.10
2018-01-10T05:34:01.977Z,11.70
2018-01-10T05:36:30.312Z,13.30
2018-01-10T05:38:58.666Z,12.10
2018-01-10T05:41:27.016Z,12.73
2018-01-10T05:43:55.352Z,11.93
2018-01-10T05:46:23.692Z,10.00
2018-01-10T05:48:52.828Z,11.03
2018-01-10T05:51:21.925Z,13.63
2018-01-10T05:53:50.272Z,11.73
2018-01-10T05:56:18.628Z,10.93
2018-01-10T05:58:46.987Z,12.70
2018-01-10T06:01:16.021Z,12.40
2018-01-10T06:03:44.365Z,11.23
2018-01-10T06:06:13.828Z,11.20
2018-01-10T06:08:42.175Z,13.10
2018-01-10T06:11:10.556Z,11.37
2018-01-10T06:13:38.901Z,13.30
2018-01-10T06:16:07.241Z,11.90
2018-01-10T06:18:35.585Z,15.57
2018-01-10T06:21:03.949Z,17.03
2018-01-10T06:23:32.342Z,11.67
2018-01-10T06:26:00.673Z,10.10
2018-01-10T06:28:29.008Z,13.50
2018-01-10T06:30:57.341Z,10.33
2018-01-10T06:33:25.680Z,11.27
2018-01-10T06:35:54.018Z,10.67
2018-01-10T06:38:22.361Z,12.20
2018-01-10T06:40:50.708Z,11.70
2018-01-10T06:43:19.520Z,9.53
2018-01-10T06:45:47.865Z,10.10
2018-01-10T06:48:16.205Z,10.70
2018-01-10T06:50:44.547Z,9.50
2018-01-10T06:53:12.885Z,11.40
2018-01-10T06:55:41.246Z,11.30
2018-01-10T06:58:09.592Z,10.52
2018-01-10T07:00:37.919Z,9.70
2018-01-10T07:03:06.269Z,10.67
2018-01-10T07:05:34.613Z,9.00
2018-01-10T07:08:03.740Z,13.00
2018-01-10T07:10:32.838Z,16.00
2018-01-10T07:13:01.181Z,9.80
2018-01-10T07:15:30.277Z,12.73
2018-01-10T07:17:59.378Z,11.50
2018-01-10T07:20:27.708Z,9.87
2018-01-10T07:22:56.069Z,11.47
2018-01-10T07:25:24.396Z,10.10
2018-01-10T07:27:53.512Z,10.35
2018-01-10T07:30:21.871Z,12.10
2018-01-10T07:32:50.976Z,10.23
2018-01-10T07:35:19.318Z,13.67
2018-01-10T07:37:47.662Z,12.13
2018-01-10T07:40:16.005Z,12.07
2018-01-10T07:42:45.109Z,9.20
2018-01-10T07:45:13.457Z,12.23
2018-01-10T07:47:41.801Z,10.70
2018-01-10T07:50:10.134Z,13.53
2018-01-10T07:52:39.245Z,11.90
2018-01-10T07:55:07.580Z,11.90
2018-01-10T07:57:35.947Z,10.97
2018-01-10T08:00:04.294Z,13.60
2018-01-10T08:02:32.642Z,11.53
2018-01-10T08:05:01.345Z,14.27
2018-01-10T08:07:29.690Z,13.63
2018-01-10T08:09:58.020Z,11.70
2018-01-10T08:12:26.362Z,11.43
2018-01-10T08:14:55.485Z,12.73
2018-01-10T08:17:23.832Z,13.07
2018-01-10T08:19:52.948Z,11.90
2018-01-10T08:22:21.288Z,13.37
2018-01-10T08:24:49.621Z,11.10
2018-01-10T08:27:17.966Z,10.63
2018-01-10T08:29:47.073Z,12.73
2018-01-10T08:32:16.417Z,12.23
2018-01-10T08:34:44.755Z,10.80
2018-01-10T08:37:13.103Z,14.27
2018-01-10T08:39:41.462Z,12.77
2018-01-10T08:42:09.821Z,11.47
2018-01-10T08:44:38.179Z,10.80
2018-01-10T08:47:06.530Z,11.00
2018-01-10T08:49:35.640Z,11.20
2018-01-10T08:52:04.039Z,13.37
2018-01-10T08:54:32.368Z,11.17
2018-01-10T08:57:00.699Z,11.70
2018-01-10T08:59:29.034Z,12.87
2018-01-10T09:01:58.132Z,13.37
2018-01-10T09:04:26.520Z,11.33
2018-01-10T09:06:54.845Z,11.97
2018-01-10T09:09:23.192Z,9.67
2018-01-10T09:11:51.525Z,11.07
2018-01-10T09:14:19.874Z,11.03
2018-01-10T09:16:49.110Z,10.40
2018-01-10T09:19:17.467Z,12.17
2018-01-10T09:21:45.814Z,11.13
2018-01-10T09:24:14.160Z,9.80
2018-01-10T09:26:42.554Z,11.53
2018-01-10T09:29:10.905Z,9.60
2018-01-10T09:31:39.236Z,9.43
2018-01-10T09:34:07.572Z,9.90
2018-01-10T09:36:35.915Z,12.03
2018-01-10T09:39:04.270Z,10.23
2018-01-10T09:41:32.597Z,10.03
2018-01-10T09:44:01.800Z,9.50
2018-01-10T09:46:30.151Z,11.50
2018-01-10T09:48:58.498Z,11.00
2018-01-10T09:51:26.845Z,10.90
2018-01-10T09:53:55.184Z,7.90
2018-01-10T09:56:23.527Z,10.83
2018-01-10T09:58:51.864Z,9.67
2018-01-10T10:01:20.209Z,8.60
2018-01-10T10:03:48.553Z,9.88
2018-01-10T10:06:16.888Z,8.13
2018-01-10T10:08:45.242Z,8.80
2018-01-10T10:11:13.617Z,10.20
2018-01-10T10:13:42.685Z,10.53
2018-01-10T10:16:12.793Z,8.50
2018-01-10T10:18:41.170Z,8.07
2018-01-10T10:21:09.519Z,7.67
2018-01-10T10:23:38.606Z,8.33
2018-01-10T10:26:06.956Z,7.00
2018-01-10T10:28:35.300Z,6.20
2018-01-10T10:31:03.698Z,6.10
2018-01-10T10:33:33.899Z,6.40
2018-01-10T10:36:03.271Z,6.40
2018-01-10T10:38:31.608Z,6.05
2018-01-10T10:40:59.924Z,6.00
2018-01-10T10:43:29.015Z,6.10
2018-01-10T10:45:57.343Z,5.63
2018-01-10T10:48:25.674Z,6.90
2018-01-10T10:50:54.802Z,5.30
2018-01-10T10:53:23.115Z,5.57
2018-01-10T10:55:51.461Z,5.03
2018-01-10T10:58:19.822Z,5.03
2018-01-10T11:00:48.139Z,5.33
2018-01-10T11:03:16.493Z,5.47
2018-01-10T11:05:44.809Z,4.73
2018-01-10T11:08:13.129Z,5.17
2018-01-10T11:10:41.468Z,5.40
2018-01-10T11:13:09.806Z,4.70
2018-01-10T11:15:38.138Z,4.20
2018-01-10T11:18:06.474Z,3.53
2018-01-10T11:20:34.813Z,3.80
2018-01-10T11:23:03.143Z,4.30
2018-01-10T11:25:31.492Z,4.27
2018-01-10T11:27:59.837Z,4.20
2018-01-10T11:30:28.187Z,3.80
2018-01-10T11:32:56.540Z,3.80
2018-01-10T11:35:24.928Z,4.47
2018-01-10T11:37:53.282Z,3.73
2018-01-10T11:40:21.596Z,4.50
2018-01-10T11:42:49.939Z,3.87
2018-01-10T11:45:18.263Z,4.90
2018-01-10T11:47:46.627Z,4.03
2018-01-10T11:50:14.945Z,4.20
2018-01-10T11:52:43.259Z,3.77
2018-01-10T11:55:11.565Z,3.03
2018-01-10T11:57:39.899Z,3.30
2018-01-10T12:00:08.210Z,3.63
2018-01-10T12:02:36.569Z,4.03
2018-01-10T12:05:04.901Z,5.07
2018-01-10T12:07:33.244Z,3.70
2018-01-10T12:10:01.564Z,3.93
2018-01-10T12:12:29.905Z,3.37
2018-01-10T12:14:58.232Z,3.23
2018-01-10T12:17:28.162Z,3.07
2018-01-10T12:19:56.500Z,3.07
2018-01-10T12:22:29.722Z,3.25
2018-01-10T12:24:58.762Z,3.63
2018-01-10T12:27:27.096Z,3.73
2018-01-10T12:29:55.441Z,2.90
2018-01-10T12:32:23.782Z,3.60
2018-01-10T12:34:52.123Z,3.00
2018-01-10T12:37:21.123Z,3.60
2018-01-10T12:39:49.446Z,3.23
2018-01-10T12:42:18.496Z,3.50
2018-01-10T12:44:46.802Z,3.43
2018-01-10T12:47:15.150Z,2.97
2018-01-10T12:49:43.487Z,2.80
2018-01-10T12:52:11.832Z,3.03
2018-01-10T12:54:40.185Z,2.63
2018-01-10T12:57:08.511Z,2.73
2018-01-10T12:59:36.865Z,2.87
2018-01-10T13:02:05.203Z,2.97
2018-01-10T13:04:33.547Z,2.42
2018-01-10T13:07:02.646Z,5.83
2018-01-10T13:09:30.984Z,3.77
2018-01-10T13:11:59.333Z,2.50
2018-01-10T13:14:27.666Z,3.00
2018-01-10T13:16:56.026Z,2.50
2018-01-10T13:19:24.359Z,3.43
2018-01-10T13:21:52.700Z,2.53
2018-01-10T13:24:21.053Z,2.40
2018-01-10T13:26:49.390Z,2.30
2018-01-10T13:29:17.720Z,2.83
2018-01-10T13:31:46.053Z,2.93
2018-01-10T13:34:14.404Z,2.73
2018-01-10T13:36:43.526Z,2.40
2018-01-10T13:39:11.880Z,2.60
2018-01-10T13:41:40.214Z,2.80
2018-01-10T13:44:08.579Z,2.60
2018-01-10T13:46:36.926Z,2.27
2018-01-10T13:49:05.738Z,2.30
2018-01-10T13:51:34.108Z,2.00
2018-01-10T13:54:02.435Z,2.97
2018-01-10T13:56:30.764Z,3.00
2018-01-10T13:58:59.125Z,2.60
2018-01-10T14:01:27.444Z,2.50
2018-01-10T14:03:55.811Z,3.20
2018-01-10T14:06:24.161Z,3.50
2018-01-10T14:08:52.496Z,2.67
2018-01-10T14:11:20.849Z,2.60
2018-01-10T14:13:49.184Z,3.70
2018-01-10T14:16:17.498Z,3.53
2018-01-10T14:18:46.590Z,3.20
2018-01-10T14:21:14.922Z,2.97
2018-01-10T14:23:44.039Z,4.30
2018-01-10T14:26:12.366Z,3.03
2018-01-10T14:28:40.707Z,4.10
2018-01-10T14:31:09.041Z,3.10
2018-01-10T14:33:37.762Z,2.90
2018-01-10T14:36:06.097Z,2.20
2018-01-10T14:38:36.492Z,2.07
2018-01-10T14:41:04.830Z,2.17
2018-01-10T14:43:33.162Z,2.60
2018-01-10T14:46:01.487Z,2.67
2018-01-10T14:48:30.620Z,2.13
2018-01-10T14:50:58.977Z,1.90
2018-01-10T14:53:27.315Z,2.00
2018-01-10T14:55:55.660Z,1.83
2018-01-10T14:58:23.990Z,1.83
2018-01-10T15:00:52.315Z,2.37
2018-01-10T15:03:20.677Z,2.10
2018-01-10T15:05:49.004Z,2.70
2018-01-10T15:08:18.098Z,2.10
2018-01-10T15:10:46.411Z,2.70
2018-01-10T15:13:14.744Z,2.43
2018-01-10T15:15:43.092Z,2.90
2018-01-10T15:18:12.219Z,2.60
2018-01-10T15:20:40.558Z,2.80
2018-01-10T15:23:08.915Z,2.53
2018-01-10T15:25:37.229Z,3.90
2018-01-10T15:28:05.851Z,2.55
2018-01-10T15:30:34.161Z,3.20
2018-01-10T15:33:02.497Z,2.53
2018-01-10T15:35:31.179Z,2.40
2018-01-10T15:37:59.501Z,2.57
2018-01-10T15:40:27.837Z,3.33
2018-01-10T15:42:56.141Z,3.17
2018-01-10T15:45:25.747Z,3.90
2018-01-10T15:47:54.083Z,4.27
2018-01-10T15:50:23.364Z,2.80
2018-01-10T15:52:51.698Z,2.97
2018-01-10T15:55:20.072Z,6.80
2018-01-10T15:57:48.412Z,3.60
2018-01-10T16:00:16.752Z,3.70
2018-01-10T16:02:45.066Z,4.47
2018-01-10T16:05:13.783Z,3.60
2018-01-10T16:07:42.119Z,3.50
2018-01-10T16:10:10.448Z,2.80
2018-01-10T16:12:38.766Z,2.77
2018-01-10T16:15:07.083Z,3.33
2018-01-10T16:17:36.424Z,4.12
2018-01-10T16:20:04.755Z,3.97
2018-01-10T16:22:33.106Z,5.57
2018-01-10T16:25:01.453Z,5.73
2018-01-10T16:27:29.842Z,6.03
2018-01-10T16:29:58.159Z,6.07
2018-01-10T16:32:26.963Z,4.67
2018-01-10T16:34:55.288Z,4.10
2018-01-10T16:37:23.612Z,4.17
2018-01-10T16:39:51.953Z,4.00
2018-01-10T16:42:20.262Z,3.73
2018-01-10T16:44:49.410Z,3.70
2018-01-10T16:47:17.770Z,4.43
2018-01-10T16:49:46.086Z,3.90
2018-01-10T16:52:14.855Z,3.77
2018-01-10T16:54:43.236Z,4.20
2018-01-10T16:57:11.570Z,4.67
2018-01-10T16:59:40.667Z,3.60
2018-01-10T17:02:09.155Z,3.57
2018-01-10T17:04:37.482Z,3.90
2018-01-10T17:07:05.835Z,4.23
2018-01-10T17:09:34.155Z,3.53
2018-01-10T17:12:02.467Z,4.30
2018-01-10T17:14:31.556Z,5.07
2018-01-10T17:16:59.933Z,4.17
2018-01-10T17:19:29.058Z,4.00
2018-01-10T17:21:57.397Z,3.47
2018-01-10T17:24:26.617Z,4.53
2018-01-10T17:26:54.949Z,4.40
2018-01-10T17:29:23.275Z,5.27
2018-01-10T17:31:52.216Z,4.50
2018-01-10T17:34:20.542Z,4.87
2018-01-10T17:36:48.887Z,3.77
2018-01-10T17:39:17.373Z,5.07
2018-01-10T17:41:45.717Z,4.77
2018-01-10T17:44:14.040Z,5.37
2018-01-10T17:46:42.637Z,5.33
2018-01-10T17:49:10.983Z,4.80
2018-01-10T17:51:39.293Z,5.50
2018-01-10T17:54:08.393Z,5.27
2018-01-10T17:56:36.745Z,5.50
2018-01-10T17:59:05.919Z,5.73
2018-01-10T18:01:34.258Z,5.90
2018-01-10T18:04:02.603Z,6.37
2018-01-10T18:06:30.942Z,5.40
2018-01-10T18:08:59.329Z,5.03
2018-01-10T18:11:28.408Z,5.00
2018-01-10T18:13:57.806Z,4.70
2018-01-10T18:16:26.486Z,4.07
2018-01-10T18:18:55.209Z,5.00
2018-01-10T18:21:23.822Z,4.43
2018-01-10T18:23:52.377Z,6.87
2018-01-10T18:26:21.082Z,5.87
2018-01-10T18:28:49.731Z,4.37
2018-01-10T18:31:18.780Z,5.13
2018-01-10T18:33:47.411Z,5.00
2018-01-10T18:36:17.675Z,6.07
2018-01-10T18:38:47.418Z,5.40
2018-01-10T18:41:17.321Z,8.00
2018-01-10T18:43:46.993Z,6.50
2018-01-10T18:46:16.727Z,8.90
2018-01-10T18:48:47.255Z,8.37
2018-01-10T18:51:17.790Z,7.97
2018-01-10T18:53:48.412Z,6.73
2018-01-10T18:56:18.311Z,7.60
2018-01-10T18:58:49.195Z,4.97
2018-01-10T19:01:24.049Z,6.07
2018-01-10T19:03:53.844Z,5.90
2018-01-10T19:06:24.335Z,5.60
2018-01-10T19:08:54.106Z,6.57
2018-01-10T19:11:23.897Z,8.33
2018-01-10T19:13:53.759Z,6.00
2018-01-10T19:16:23.624Z,8.80
2018-01-10T19:18:53.524Z,8.07
2018-01-10T19:21:23.553Z,9.40
2018-01-10T19:23:53.499Z,9.03
2018-01-10T19:26:23.295Z,7.60
2018-01-10T19:28:53.490Z,7.17
2018-01-10T19:31:24.935Z,6.43
2018-01-10T19:33:54.881Z,7.27
2018-01-10T19:36:24.741Z,6.23
2018-01-10T19:38:54.598Z,6.30
2018-01-10T19:41:24.503Z,6.93
2018-01-10T19:43:55.251Z,7.60
2018-01-10T19:46:25.192Z,9.20
2018-01-10T19:48:55.052Z,7.22
2018-01-10T19:51:25.727Z,8.93
2018-01-10T19:53:55.736Z,7.10
2018-01-10T19:56:25.648Z,6.50
2018-01-10T19:58:55.540Z,5.53
2018-01-10T20:01:26.247Z,6.63
2018-01-10T20:03:56.100Z,7.25
2018-01-10T20:06:25.965Z,7.10
2018-01-10T20:08:55.840Z,8.87
2018-01-10T20:11:26.444Z,8.67
2018-01-10T20:13:57.065Z,13.33
2018-01-10T20:16:26.994Z,21.97
2018-01-10T20:18:57.060Z,15.60
2018-01-10T20:21:27.161Z,15.70
2018-01-10T20:23:57.066Z,10.98
2018-01-10T20:26:27.069Z,12.63
2018-01-10T20:28:56.990Z,11.17
2018-01-10T20:31:26.936Z,9.90
2018-01-10T20:33:57.737Z,12.10
2018-01-10T20:36:28.410Z,10.30
2018-01-10T20:38:58.250Z,12.07
2018-01-10T20:41:29.188Z,10.60
2018-01-10T20:43:59.089Z,10.33
2018-01-10T20:46:29.012Z,11.03
2018-01-10T20:48:59.765Z,11.00
2018-01-10T20:51:31.139Z,8.53
2018-01-10T20:54:01.211Z,11.90
2018-01-10T20:56:36.913Z,10.03
2018-01-10T20:59:06.848Z,14.60
2018-01-10T21:01:36.815Z,11.70
2018-01-10T21:04:06.932Z,10.47
2018-01-10T21:06:36.949Z,10.70
2018-01-10T21:09:07.006Z,9.37
2018-01-10T21:11:36.925Z,10.73
2018-01-10T21:14:06.906Z,12.63
2018-01-10T21:16:36.816Z,13.47
2018-01-10T21:19:06.815Z,11.60
2018-01-10T21:21:36.766Z,10.70
2018-01-10T21:24:06.692Z,11.07
2018-01-10T21:26:36.638Z,11.13
2018-01-10T21:29:06.578Z,10.80
2018-01-10T21:31:36.502Z,13.87
2018-01-10T21:34:06.389Z,12.63
2018-01-10T21:36:36.395Z,11.23
2018-01-10T21:39:06.890Z,9.20
2018-01-10T21:41:36.807Z,9.40
2018-01-10T21:44:06.897Z,15.27
2018-01-10T21:46:38.299Z,14.50
2018-01-10T21:49:08.273Z,11.70
2018-01-10T21:51:38.264Z,9.30
2018-01-10T21:54:08.082Z,10.00
2018-01-10T21:56:37.896Z,10.30
2018-01-10T21:59:07.827Z,9.30
2018-01-10T22:01:37.666Z,9.60
2018-01-10T22:04:07.526Z,8.93
2018-01-10T22:06:37.279Z,6.83
2018-01-10T22:09:07.180Z,6.30
2018-01-10T22:11:37.096Z,6.10
2018-01-10T22:14:07.399Z,6.53
2018-01-10T22:16:38.076Z,8.80
2018-01-10T22:19:07.958Z,8.45
2018-01-10T22:21:37.825Z,8.73
2018-01-10T22:24:07.853Z,10.80
2018-01-10T22:26:37.792Z,11.40
2018-01-10T22:29:08.331Z,10.00
2018-01-10T22:31:38.138Z,12.30
2018-01-10T22:34:07.900Z,11.63
2018-01-10T22:36:37.567Z,11.27
2018-01-10T22:39:07.464Z,10.60
2018-01-10T22:41:37.960Z,11.63
2018-01-10T22:44:07.800Z,11.47
2018-01-10T22:46:37.789Z,12.43
2018-01-10T22:49:07.124Z,16.70
2018-01-10T22:51:35.790Z,13.40
2018-01-10T22:54:04.280Z,11.93
2018-01-10T22:56:32.755Z,10.30
2018-01-10T22:59:01.966Z,9.70
2018-01-10T23:01:30.305Z,9.60
2018-01-10T23:03:58.664Z,10.03
2018-01-10T23:06:27.033Z,10.57
2018-01-10T23:08:55.354Z,9.93
2018-01-10T23:11:24.476Z,9.63
2018-01-10T23:13:52.802Z,8.77
2018-01-10T23:16:21.136Z,7.30
2018-01-10T23:18:49.464Z,8.40
2018-01-10T23:21:17.784Z,10.70
2018-01-10T23:23:46.114Z,8.73
2018-01-10T23:26:14.806Z,7.20
2018-01-10T23:28:43.124Z,10.43
2018-01-10T23:31:11.426Z,9.57
2018-01-10T23:33:39.751Z,6.27
2018-01-10T23:36:08.852Z,7.23
2018-01-10T23:38:37.229Z,11.70
2018-01-10T23:41:05.567Z,8.87
2018-01-10T23:43:33.886Z,8.67
2018-01-10T23:46:02.947Z,6.93
2018-01-10T23:48:31.261Z,9.53
2018-01-10T23:51:00.347Z,6.97
2018-01-10T23:53:28.683Z,6.77
2018-01-10T23:55:56.999Z,7.63
2018-01-10T23:58:26.101Z,6.57
